Time;durP1;ratioP1;P1;durP2;ratioP2;P2;SDS_P1;SDS_P2;PMS_P1;PMS_P2;Temp;Humidity;BMP_temperature;BMP_pressure;BME280_temperature;BME280_humidity;BME280_pressure;Samples;Min_cycle;Max_cycle;Signal;HPM_P1;HPM_P2
2024/01/11 00:03:20;;;;;;;28.58;19.65;;;;;;;;;;9949000;28;20524;-72
2024/01/11 00:08:13;;;;;;;31.55;24.40;;;;;;;;;;9948496;28;20077;-72
2024/01/11 00:13:05;;;;;;;21.70;17.48;;;;;;;;;;9948110;28;20042;-73
2024/01/11 00:17:57;;;;;;;23.00;18.50;;;;;;;;;;9948155;28;20066;-73
2024/01/11 00:22:49;;;;;;;23.17;17.35;;;;;;;;;;9952060;28;20043;-72
2024/01/11 00:27:41;;;;;;;22.98;16.48;;;;;;;;;;9950241;28;20151;-73
2024/01/11 00:32:33;;;;;;;20.23;16.67;;;;;;;;;;9951407;28;20063;-73
2024/01/11 00:37:25;;;;;;;19.33;15.38;;;;;;;;;;9955299;28;20051;-73
2024/01/11 00:42:17;;;;;;;22.70;17.20;;;;;;;;;;9956529;28;20142;-73
2024/01/11 00:47:10;;;;;;;22.10;16.30;;;;;;;;;;9940332;28;20054;-73
2024/01/11 00:52:02;;;;;;;17.25;15.05;;;;;;;;;;9956859;28;20074;-73
2024/01/11 00:56:54;;;;;;;22.80;16.20;;;;;;;;;;9956221;28;20058;-72
2024/01/11 01:01:48;;;;;;;21.05;18.02;;;;;;;;;;9955055;28;20038;-72
2024/01/11 01:06:41;;;;;;;21.70;15.98;;;;;;;;;;9956100;28;20057;-73
2024/01/11 01:11:33;;;;;;;23.48;18.83;;;;;;;;;;9955114;28;20101;-73
2024/01/11 01:16:25;;;;;;;25.58;18.38;;;;;;;;;;9935994;28;20078;-73
2024/01/11 01:21:17;;;;;;;21.15;17.13;;;;;;;;;;9961579;28;20373;-73
2024/01/11 01:26:08;;;;;;;23.52;16.27;;;;;;;;;;9954562;28;20174;-73
2024/01/11 01:31:00;;;;;;;19.55;16.08;;;;;;;;;;9953609;28;20150;-73
2024/01/11 01:35:52;;;;;;;24.30;16.85;;;;;;;;;;9954069;28;20074;-73
2024/01/11 01:40:44;;;;;;;26.00;16.98;;;;;;;;;;9953045;28;20049;-73
2024/01/11 01:45:36;;;;;;;21.00;17.15;;;;;;;;;;9953161;28;20089;-73
2024/01/11 01:50:28;;;;;;;29.10;19.48;;;;;;;;;;9952662;28;20149;-73
2024/01/11 01:55:20;;;;;;;25.42;16.65;;;;;;;;;;9936924;28;20046;-73
2024/01/11 02:00:13;;;;;;;21.33;17.63;;;;;;;;;;9936349;28;20043;-73
2024/01/11 02:05:06;;;;;;;21.63;16.40;;;;;;;;;;9953250;28;20042;-73
2024/01/11 02:09:58;;;;;;;24.38;17.77;;;;;;;;;;9952554;28;20124;-73
2024/01/11 02:14:53;;;;;;;22.95;16.73;;;;;;;;;;9952426;28;20470;-72
2024/01/11 02:19:45;;;;;;;20.33;17.13;;;;;;;;;;9952022;28;20074;-73
2024/01/11 02:24:37;;;;;;;21.27;17.55;;;;;;;;;;9935864;28;20535;-73
2024/01/11 02:29:30;;;;;;;22.73;18.88;;;;;;;;;;9952505;28;20497;-72
2024/01/11 02:34:26;;;;;;;20.65;15.82;;;;;;;;;;9951412;28;20149;-72
2024/01/11 02:39:19;;;;;;;22.83;18.70;;;;;;;;;;9950611;28;20047;-72
2024/01/11 02:44:11;;;;;;;27.67;19.60;;;;;;;;;;9949473;28;20105;-72
2024/01/11 02:49:03;;;;;;;19.83;16.98;;;;;;;;;;9951211;28;20051;-72
2024/01/11 02:53:55;;;;;;;28.00;18.17;;;;;;;;;;9951204;28;20144;-71
2024/01/11 02:58:47;;;;;;;23.67;18.70;;;;;;;;;;9950437;28;20239;-72
2024/01/11 03:03:39;;;;;;;25.42;20.52;;;;;;;;;;9950000;28;20043;-72
2024/01/11 03:08:31;;;;;;;26.27;20.63;;;;;;;;;;9950279;28;20051;-72
2024/01/11 03:13:23;;;;;;;26.33;18.58;;;;;;;;;;9950742;28;20433;-72
2024/01/11 03:18:15;;;;;;;24.95;19.17;;;;;;;;;;9949587;28;20058;-72
2024/01/11 03:23:07;;;;;;;28.75;19.05;;;;;;;;;;9949933;28;20109;-72
2024/01/11 03:27:59;;;;;;;26.10;19.58;;;;;;;;;;9948837;28;20062;-71
2024/01/11 03:32:51;;;;;;;26.42;19.90;;;;;;;;;;9949564;28;20061;-72
2024/01/11 03:37:43;;;;;;;24.95;19.33;;;;;;;;;;9949126;28;20050;-72
2024/01/11 03:42:35;;;;;;;23.50;18.40;;;;;;;;;;9949777;28;20045;-72
2024/01/11 03:47:28;;;;;;;24.77;18.45;;;;;;;;;;9948895;28;20154;-72
2024/01/11 03:52:20;;;;;;;24.88;18.95;;;;;;;;;;9949058;28;20034;-71
2024/01/11 03:57:12;;;;;;;26.63;18.35;;;;;;;;;;9948962;28;20105;-71
2024/01/11 04:02:04;;;;;;;34.75;22.00;;;;;;;;;;9947765;28;20039;-72
2024/01/11 04:06:56;;;;;;;24.23;19.13;;;;;;;;;;9931409;28;20074;-71
2024/01/11 04:11:48;;;;;;;40.65;31.08;;;;;;;;;;9948701;28;20062;-72
2024/01/11 04:16:41;;;;;;;24.92;21.10;;;;;;;;;;9949049;28;20043;-72
2024/01/11 04:21:33;;;;;;;20.75;18.60;;;;;;;;;;9948263;28;20039;-72
2024/01/11 04:26:25;;;;;;;21.48;19.13;;;;;;;;;;9948661;28;20389;-72
2024/01/11 04:31:17;;;;;;;25.75;18.98;;;;;;;;;;9947668;28;20047;-72
2024/01/11 04:36:09;;;;;;;24.42;20.40;;;;;;;;;;9948061;28;20054;-72
2024/01/11 04:41:01;;;;;;;21.98;17.75;;;;;;;;;;9948437;28;20450;-71
2024/01/11 04:45:53;;;;;;;23.20;17.85;;;;;;;;;;9947975;28;20050;-72
2024/01/11 04:50:45;;;;;;;22.92;18.75;;;;;;;;;;9947471;28;20113;-72
2024/01/11 04:55:37;;;;;;;23.65;19.35;;;;;;;;;;9948529;28;20043;-72
2024/01/11 05:00:29;;;;;;;22.80;19.52;;;;;;;;;;9947295;28;20129;-72
2024/01/11 05:05:21;;;;;;;26.63;20.40;;;;;;;;;;9947479;28;20517;-72
2024/01/11 05:10:13;;;;;;;24.88;20.70;;;;;;;;;;9947602;28;20053;-72
2024/01/11 05:15:08;;;;;;;21.40;18.38;;;;;;;;;;9947242;28;20113;-72
2024/01/11 05:20:00;;;;;;;29.85;20.15;;;;;;;;;;9952427;28;20074;-72
2024/01/11 05:24:52;;;;;;;24.90;18.95;;;;;;;;;;9954167;28;20059;-72
2024/01/11 05:29:44;;;;;;;23.23;17.92;;;;;;;;;;9953740;28;20038;-72
2024/01/11 05:34:36;;;;;;;25.75;20.15;;;;;;;;;;9954289;28;20062;-72
2024/01/11 05:39:28;;;;;;;27.38;20.08;;;;;;;;;;9954018;28;20123;-72
2024/01/11 05:44:20;;;;;;;27.38;19.42;;;;;;;;;;9954047;28;20039;-72
2024/01/11 05:49:12;;;;;;;29.27;21.17;;;;;;;;;;9953398;28;20057;-72
2024/01/11 05:54:04;;;;;;;24.38;19.20;;;;;;;;;;9952154;28;20461;-71
2024/01/11 05:58:55;;;;;;;28.55;21.83;;;;;;;;;;9954662;28;20138;-72
2024/01/11 06:03:47;;;;;;;26.27;21.05;;;;;;;;;;9952303;28;20497;-72
2024/01/11 06:08:39;;;;;;;26.55;20.23;;;;;;;;;;9951692;28;20462;-72
2024/01/11 06:13:31;;;;;;;24.65;20.10;;;;;;;;;;9952142;28;20054;-72
2024/01/11 06:18:23;;;;;;;29.23;20.02;;;;;;;;;;9951125;28;20047;-72
2024/01/11 06:23:16;;;;;;;30.33;19.92;;;;;;;;;;9952245;28;20160;-71
2024/01/11 06:28:09;;;;;;;25.30;20.05;;;;;;;;;;9950400;28;20047;-71
2024/01/11 06:33:01;;;;;;;32.88;20.33;;;;;;;;;;9950814;28;20074;-71
2024/01/11 06:37:53;;;;;;;29.25;21.67;;;;;;;;;;9950513;28;20052;-72
2024/01/11 06:42:45;;;;;;;26.58;20.15;;;;;;;;;;9951943;28;20058;-71
2024/01/11 06:47:37;;;;;;;30.10;21.70;;;;;;;;;;9957492;28;20042;-71
2024/01/11 06:52:29;;;;;;;27.25;20.45;;;;;;;;;;9980313;28;20498;-71
2024/01/11 06:57:21;;;;;;;25.80;20.23;;;;;;;;;;9981771;28;20046;-71
2024/01/11 07:02:13;;;;;;;25.85;22.85;;;;;;;;;;9981987;28;20125;-72
2024/01/11 07:07:05;;;;;;;29.25;21.95;;;;;;;;;;9992257;28;20058;-72
2024/01/11 07:11:57;;;;;;;29.27;21.35;;;;;;;;;;9983143;28;20093;-72
2024/01/11 07:16:49;;;;;;;27.35;21.42;;;;;;;;;;9983887;28;20358;-71
2024/01/11 07:21:41;;;;;;;28.38;22.02;;;;;;;;;;9983962;28;20212;-72
2024/01/11 07:26:33;;;;;;;29.05;22.35;;;;;;;;;;9984885;28;20050;-71
2024/01/11 07:31:25;;;;;;;31.13;20.45;;;;;;;;;;9983884;28;20050;-71
2024/01/11 07:36:17;;;;;;;26.33;20.60;;;;;;;;;;9984336;28;20137;-71
2024/01/11 07:41:09;;;;;;;25.52;20.73;;;;;;;;;;9983380;28;20081;-71
2024/01/11 07:46:03;;;;;;;25.98;21.63;;;;;;;;;;9982566;28;20097;-71
2024/01/11 07:50:55;;;;;;;27.35;20.58;;;;;;;;;;9980553;28;20134;-75
2024/01/11 07:55:47;;;;;;;32.17;21.17;;;;;;;;;;9963533;28;20129;-75
2024/01/11 08:00:39;;;;;;;29.10;20.55;;;;;;;;;;9947533;28;20082;-75
2024/01/11 08:05:31;;;;;;;24.50;19.35;;;;;;;;;;9958736;28;20106;-71
2024/01/11 08:10:23;;;;;;;24.65;19.35;;;;;;;;;;9971961;28;20047;-72
2024/01/11 08:15:15;;;;;;;27.30;18.33;;;;;;;;;;9948651;28;20035;-72
2024/01/11 08:20:08;;;;;;;31.27;22.17;;;;;;;;;;9958299;28;20695;-72
2024/01/11 08:25:00;;;;;;;30.02;21.35;;;;;;;;;;9948463;28;20042;-72
2024/01/11 08:29:52;;;;;;;25.20;19.73;;;;;;;;;;9957940;28;20078;-72
2024/01/11 08:34:44;;;;;;;25.10;18.52;;;;;;;;;;9958367;28;20139;-72
2024/01/11 08:39:36;;;;;;;24.50;18.15;;;;;;;;;;9949754;28;20070;-72
2024/01/11 08:44:30;;;;;;;26.80;18.50;;;;;;;;;;9947089;28;20039;-72
2024/01/11 08:49:22;;;;;;;24.40;18.80;;;;;;;;;;9951772;28;20130;-72
2024/01/11 08:54:16;;;;;;;24.10;18.52;;;;;;;;;;9950959;28;20042;-73
2024/01/11 08:59:11;;;;;;;23.65;17.83;;;;;;;;;;9954781;28;20462;-72
2024/01/11 09:04:05;;;;;;;27.05;19.33;;;;;;;;;;9958951;28;20060;-72
2024/01/11 09:08:57;;;;;;;19.48;15.10;;;;;;;;;;9962252;28;20150;-72
2024/01/11 09:13:49;;;;;;;23.80;19.35;;;;;;;;;;9975277;28;20047;-72
2024/01/11 09:18:40;;;;;;;22.05;17.85;;;;;;;;;;9965038;28;20053;-72
2024/01/11 09:23:36;;;;;;;22.35;15.63;;;;;;;;;;9955754;28;20081;-72
2024/01/11 09:28:28;;;;;;;21.40;15.95;;;;;;;;;;9955041;28;20486;-72
2024/01/11 09:33:20;;;;;;;21.55;16.13;;;;;;;;;;9963923;28;20074;-72
2024/01/11 09:38:12;;;;;;;19.75;14.43;;;;;;;;;;9958046;28;20054;-72
2024/01/11 09:43:04;;;;;;;21.65;15.18;;;;;;;;;;9956458;28;20470;-72
2024/01/11 09:47:56;;;;;;;20.98;15.95;;;;;;;;;;9963099;28;20046;-72
2024/01/11 09:52:50;;;;;;;19.58;13.98;;;;;;;;;;9951830;28;20038;-72
2024/01/11 09:57:45;;;;;;;18.38;14.95;;;;;;;;;;9960090;28;20053;-72
2024/01/11 10:02:37;;;;;;;29.83;23.65;;;;;;;;;;9955912;28;20042;-72
2024/01/11 10:07:30;;;;;;;18.88;14.15;;;;;;;;;;9969241;28;20050;-72
2024/01/11 10:12:24;;;;;;;19.02;14.32;;;;;;;;;;9946642;28;20090;-72
2024/01/11 10:17:17;;;;;;;18.58;16.13;;;;;;;;;;9951100;28;20074;-72
2024/01/11 10:22:16;;;;;;;18.63;15.98;;;;;;;;;;9948123;28;20541;-72
2024/01/11 10:27:09;;;;;;;18.10;14.20;;;;;;;;;;9948400;28;20370;-72
2024/01/11 10:32:03;;;;;;;22.75;15.00;;;;;;;;;;9948254;28;20156;-73
2024/01/11 10:36:56;;;;;;;18.05;15.15;;;;;;;;;;9957127;28;20046;-73
2024/01/11 10:41:51;;;;;;;20.42;15.45;;;;;;;;;;9957103;28;20505;-73
2024/01/11 10:46:45;;;;;;;19.15;13.23;;;;;;;;;;9952054;28;20045;-73
2024/01/11 10:51:39;;;;;;;21.88;14.65;;;;;;;;;;9955537;28;20039;-73
2024/01/11 10:56:31;;;;;;;21.58;15.88;;;;;;;;;;9947967;28;20426;-72
2024/01/11 11:01:24;;;;;;;16.35;13.40;;;;;;;;;;9938156;28;20149;-73
2024/01/11 11:06:18;;;;;;;20.98;16.90;;;;;;;;;;9943205;28;20662;-73
2024/01/11 11:11:11;;;;;;;19.05;16.33;;;;;;;;;;9931249;28;20355;-73
2024/01/11 11:16:06;;;;;;;19.77;17.25;;;;;;;;;;9949372;28;20509;-73
2024/01/11 11:20:58;;;;;;;20.05;16.05;;;;;;;;;;9959220;28;20042;-73
2024/01/11 11:25:54;;;;;;;20.35;15.75;;;;;;;;;;9932864;28;20506;-74
2024/01/11 11:30:48;;;;;;;18.98;13.80;;;;;;;;;;9952395;28;20043;-73
2024/01/11 11:35:40;;;;;;;16.25;12.90;;;;;;;;;;9956670;28;20077;-73
2024/01/11 11:40:44;;;;;;;18.10;13.95;;;;;;;;;;9949210;28;20053;-73
2024/01/11 11:45:37;;;;;;;18.73;14.82;;;;;;;;;;9950829;28;20063;-73
2024/01/11 11:50:31;;;;;;;15.50;13.13;;;;;;;;;;9934000;28;20512;-73
2024/01/11 11:55:26;;;;;;;18.48;14.23;;;;;;;;;;9949235;28;20065;-73
2024/01/11 12:00:23;;;;;;;18.95;14.20;;;;;;;;;;9949518;28;20074;-73
2024/01/11 12:05:16;;;;;;;17.45;14.68;;;;;;;;;;9934928;28;20045;-74
2024/01/11 12:10:08;;;;;;;17.88;14.05;;;;;;;;;;9957233;28;20135;-73
2024/01/11 12:15:00;;;;;;;18.90;14.50;;;;;;;;;;9950619;28;20081;-73
2024/01/11 12:19:52;;;;;;;19.73;14.50;;;;;;;;;;9953956;28;20446;-74
2024/01/11 12:24:46;;;;;;;16.30;14.30;;;;;;;;;;9947816;28;20050;-73
2024/01/11 12:29:42;;;;;;;18.67;15.68;;;;;;;;;;9940736;28;20046;-73
2024/01/11 12:34:46;;;;;;;20.95;15.25;;;;;;;;;;9958469;28;20049;-73
2024/01/11 12:39:39;;;;;;;21.75;15.55;;;;;;;;;;9962576;28;20461;-73
2024/01/11 12:44:32;;;;;;;21.05;15.68;;;;;;;;;;9955765;28;20804;-73
2024/01/11 12:49:24;;;;;;;17.10;14.15;;;;;;;;;;9951490;28;20054;-73
2024/01/11 12:54:19;;;;;;;19.20;15.80;;;;;;;;;;9955628;28;20121;-73
2024/01/11 12:59:11;;;;;;;16.15;14.25;;;;;;;;;;9954586;28;20059;-73
2024/01/11 13:04:04;;;;;;;17.10;14.82;;;;;;;;;;9956376;28;20145;-73
2024/01/11 13:08:56;;;;;;;20.60;16.38;;;;;;;;;;9938800;28;20058;-73
2024/01/11 13:13:48;;;;;;;20.42;16.15;;;;;;;;;;9954725;28;20047;-73
2024/01/11 13:18:40;;;;;;;18.30;14.50;;;;;;;;;;9955234;28;20054;-73
2024/01/11 13:23:33;;;;;;;20.20;17.15;;;;;;;;;;9937974;28;20039;-73
2024/01/11 13:28:26;;;;;;;22.92;15.15;;;;;;;;;;9954273;28;20415;-73
2024/01/11 13:33:19;;;;;;;23.30;18.48;;;;;;;;;;9953523;28;20550;-73
2024/01/11 13:38:11;;;;;;;16.70;14.55;;;;;;;;;;9960182;28;20121;-73
2024/01/11 13:43:03;;;;;;;26.25;20.35;;;;;;;;;;9954564;28;20136;-73
2024/01/11 13:47:56;;;;;;;20.08;16.10;;;;;;;;;;9954292;28;20185;-73
2024/01/11 13:52:48;;;;;;;19.67;16.83;;;;;;;;;;9953371;28;20496;-73
2024/01/11 13:57:41;;;;;;;22.15;17.73;;;;;;;;;;9954125;28;20124;-73
2024/01/11 14:02:34;;;;;;;24.98;20.70;;;;;;;;;;9935509;28;20042;-75
2024/01/11 14:07:27;;;;;;;20.05;17.38;;;;;;;;;;9953617;28;20159;-72
2024/01/11 14:12:19;;;;;;;25.38;18.60;;;;;;;;;;9953347;28;20133;-72
2024/01/11 14:17:11;;;;;;;21.17;18.83;;;;;;;;;;9952756;28;20051;-72
2024/01/11 14:22:03;;;;;;;22.75;18.98;;;;;;;;;;9952300;28;20050;-71
2024/01/11 14:26:55;;;;;;;25.42;20.92;;;;;;;;;;9950676;28;20051;-72
2024/01/11 14:31:48;;;;;;;25.00;20.20;;;;;;;;;;9948768;28;20054;-72
2024/01/11 14:36:39;;;;;;;23.90;19.00;;;;;;;;;;9964196;28;20042;-72
2024/01/11 14:41:31;;;;;;;39.78;30.70;;;;;;;;;;9956108;28;20038;-72
2024/01/11 14:46:24;;;;;;;27.80;22.38;;;;;;;;;;9951388;28;20066;-72
2024/01/11 14:51:16;;;;;;;20.95;17.05;;;;;;;;;;9949918;28;20043;-72
2024/01/11 14:56:08;;;;;;;26.60;23.00;;;;;;;;;;9953143;28;20055;-72
2024/01/11 15:01:00;;;;;;;29.48;24.08;;;;;;;;;;9951272;28;20469;-72
2024/01/11 15:05:52;;;;;;;29.75;22.70;;;;;;;;;;9954144;28;20049;-73
2024/01/11 15:10:48;;;;;;;24.05;19.13;;;;;;;;;;9959962;28;20078;-73
2024/01/11 15:15:40;;;;;;;34.75;24.40;;;;;;;;;;9950759;28;20346;-72
2024/01/11 15:20:32;;;;;;;27.60;23.02;;;;;;;;;;9950426;28;20430;-72
2024/01/11 15:25:26;;;;;;;29.25;23.92;;;;;;;;;;9955790;28;20058;-72
2024/01/11 15:30:18;;;;;;;24.65;19.58;;;;;;;;;;9961115;28;20050;-72
2024/01/11 15:35:12;;;;;;;22.30;18.08;;;;;;;;;;9964736;28;20058;-72
2024/01/11 15:40:05;;;;;;;22.05;19.25;;;;;;;;;;9985883;28;20497;-73
2024/01/11 15:44:57;;;;;;;27.08;21.67;;;;;;;;;;9986023;28;20470;-72
2024/01/11 15:49:49;;;;;;;27.00;22.15;;;;;;;;;;9985718;28;20753;-73
2024/01/11 15:54:41;;;;;;;37.42;27.35;;;;;;;;;;9985128;28;20046;-74
2024/01/11 15:59:33;;;;;;;34.42;26.58;;;;;;;;;;9984188;28;20043;-72
2024/01/11 16:04:26;;;;;;;34.45;24.60;;;;;;;;;;9949656;28;20042;-72
2024/01/11 16:09:18;;;;;;;41.63;31.17;;;;;;;;;;9950542;28;20069;-72
2024/01/11 16:14:10;;;;;;;34.25;27.67;;;;;;;;;;9948687;28;20850;-72
2024/01/11 16:19:02;;;;;;;91.55;58.30;;;;;;;;;;9947976;28;21514;-72
2024/01/11 16:23:56;;;;;;;55.50;37.95;;;;;;;;;;9949743;28;20054;-72
2024/01/11 16:28:50;;;;;;;43.65;34.25;;;;;;;;;;9946051;28;20054;-72
2024/01/11 16:33:42;;;;;;;28.95;22.65;;;;;;;;;;9946107;28;20061;-73
2024/01/11 16:38:34;;;;;;;48.47;42.22;;;;;;;;;;9952763;28;20058;-71
2024/01/11 16:43:26;;;;;;;34.28;30.75;;;;;;;;;;9947184;28;20440;-72
2024/01/11 16:48:18;;;;;;;37.08;29.88;;;;;;;;;;9947305;28;20064;-72
2024/01/11 16:53:10;;;;;;;35.10;27.20;;;;;;;;;;9966741;28;20047;-72
2024/01/11 16:58:02;;;;;;;36.83;30.45;;;;;;;;;;9947358;28;20057;-72
2024/01/11 17:02:54;;;;;;;65.22;44.72;;;;;;;;;;9951020;28;20113;-72
2024/01/11 17:07:46;;;;;;;72.43;44.80;;;;;;;;;;9972865;28;20047;-72
2024/01/11 17:12:38;;;;;;;141.98;100.25;;;;;;;;;;9985039;28;20115;-72
2024/01/11 17:17:30;;;;;;;71.20;51.95;;;;;;;;;;9990821;28;20038;-72
2024/01/11 17:22:22;;;;;;;49.85;36.78;;;;;;;;;;9989258;28;20533;-72
2024/01/11 17:27:14;;;;;;;34.95;26.08;;;;;;;;;;9988962;28;20343;-72
2024/01/11 17:32:06;;;;;;;36.13;29.20;;;;;;;;;;9996106;28;20066;-72
2024/01/11 17:36:58;;;;;;;40.47;30.10;;;;;;;;;;9986433;28;20134;-72
2024/01/11 17:41:50;;;;;;;35.00;25.85;;;;;;;;;;9984228;28;20046;-72
2024/01/11 17:46:42;;;;;;;30.17;23.42;;;;;;;;;;9966656;28;20039;-72
2024/01/11 17:51:34;;;;;;;28.20;22.35;;;;;;;;;;9948982;28;20105;-72
2024/01/11 17:56:26;;;;;;;28.58;22.63;;;;;;;;;;9956770;28;20458;-72
2024/01/11 18:01:20;;;;;;;26.38;19.98;;;;;;;;;;9955684;28;20350;-72
2024/01/11 18:06:12;;;;;;;28.48;21.65;;;;;;;;;;9953973;28;20406;-72
2024/01/11 18:11:04;;;;;;;26.55;21.13;;;;;;;;;;9950859;28;20051;-72
2024/01/11 18:15:56;;;;;;;25.42;20.88;;;;;;;;;;9953517;28;20047;-74
2024/01/11 18:20:50;;;;;;;27.25;20.63;;;;;;;;;;9952378;28;20055;-72
2024/01/11 18:25:42;;;;;;;24.10;19.27;;;;;;;;;;9955058;28;20038;-71
2024/01/11 18:30:34;;;;;;;24.02;18.35;;;;;;;;;;9950092;28;20054;-72
2024/01/11 18:35:26;;;;;;;33.72;20.92;;;;;;;;;;9960105;28;20060;-72
2024/01/11 18:40:18;;;;;;;24.60;19.55;;;;;;;;;;9949565;28;20101;-73
2024/01/11 18:45:12;;;;;;;21.08;17.52;;;;;;;;;;9950673;28;20054;-73
2024/01/11 18:50:05;;;;;;;23.50;17.77;;;;;;;;;;9946893;28;20051;-72
2024/01/11 18:54:57;;;;;;;21.08;17.27;;;;;;;;;;9949831;28;20390;-72
2024/01/11 19:00:04;;;;;;;24.50;15.23;;;;;;;;;;9954365;28;20041;-72
2024/01/11 19:04:56;;;;;;;24.60;15.75;;;;;;;;;;9950200;28;20742;-72
2024/01/11 19:09:48;;;;;;;20.38;16.05;;;;;;;;;;9973179;28;20048;-72
2024/01/11 19:14:40;;;;;;;18.70;15.68;;;;;;;;;;9982620;28;20737;-73
2024/01/11 19:19:32;;;;;;;27.48;18.92;;;;;;;;;;9963072;28;20059;-73
2024/01/11 19:24:24;;;;;;;20.77;15.23;;;;;;;;;;9951957;28;20557;-78
2024/01/11 19:29:16;;;;;;;18.67;15.02;;;;;;;;;;9953311;28;20049;-77
2024/01/11 19:34:08;;;;;;;19.40;16.52;;;;;;;;;;9949508;28;20054;-78
2024/01/11 19:39:02;;;;;;;18.60;14.57;;;;;;;;;;9929934;28;20477;-78
2024/01/11 19:43:55;;;;;;;22.88;14.65;;;;;;;;;;9948997;28;20335;-79
2024/01/11 19:48:48;;;;;;;28.05;21.67;;;;;;;;;;9948880;28;20509;-78
2024/01/11 19:53:41;;;;;;;36.70;26.77;;;;;;;;;;9949540;28;20094;-78
2024/01/11 19:58:33;;;;;;;39.65;25.70;;;;;;;;;;9952273;28;20374;-77
2024/01/11 20:03:25;;;;;;;26.40;17.85;;;;;;;;;;9951081;28;20192;-74
2024/01/11 20:08:17;;;;;;;23.13;17.20;;;;;;;;;;9956783;28;20046;-75
2024/01/11 20:13:08;;;;;;;21.25;15.93;;;;;;;;;;9986884;28;20043;-74
2024/01/11 20:18:01;;;;;;;20.00;15.25;;;;;;;;;;9975028;28;20054;-75
2024/01/11 20:22:53;;;;;;;19.83;16.23;;;;;;;;;;9984107;28;20427;-75
2024/01/11 20:27:46;;;;;;;22.92;16.52;;;;;;;;;;9985100;28;20577;-75
2024/01/11 20:32:38;;;;;;;24.98;18.95;;;;;;;;;;9984589;28;20456;-75
2024/01/11 20:37:30;;;;;;;17.75;14.80;;;;;;;;;;9984684;28;20069;-75
2024/01/11 20:42:22;;;;;;;16.90;14.18;;;;;;;;;;9984868;28;20039;-77
2024/01/11 20:47:14;;;;;;;17.35;13.95;;;;;;;;;;9984612;28;20042;-77
2024/01/11 20:52:06;;;;;;;17.73;12.40;;;;;;;;;;9992953;28;20055;-76
2024/01/11 20:56:59;;;;;;;15.23;13.25;;;;;;;;;;9965402;28;20141;-76
2024/01/11 21:01:53;;;;;;;17.58;13.68;;;;;;;;;;9992017;28;20078;-76
2024/01/11 21:06:45;;;;;;;16.45;12.10;;;;;;;;;;9991406;28;20081;-76
2024/01/11 21:11:37;;;;;;;16.75;13.68;;;;;;;;;;9991657;28;20051;-76
2024/01/11 21:16:29;;;;;;;16.20;13.13;;;;;;;;;;9991229;28;20041;-77
2024/01/11 21:21:22;;;;;;;15.05;11.55;;;;;;;;;;9991455;28;20081;-77
2024/01/11 21:26:15;;;;;;;15.27;12.55;;;;;;;;;;9990957;28;20108;-76
2024/01/11 21:31:07;;;;;;;19.65;14.77;;;;;;;;;;9990418;28;20113;-76
2024/01/11 21:35:59;;;;;;;15.52;12.68;;;;;;;;;;9979167;28;20532;-76
2024/01/11 21:40:51;;;;;;;15.75;11.45;;;;;;;;;;9991182;28;20042;-76
2024/01/11 21:45:43;;;;;;;13.57;10.95;;;;;;;;;;9990633;28;20062;-76
2024/01/11 21:50:35;;;;;;;11.85;9.88;;;;;;;;;;9972303;28;20086;-78
2024/01/11 21:55:29;;;;;;;12.10;10.45;;;;;;;;;;9989210;28;20057;-77
2024/01/11 22:00:21;;;;;;;16.63;10.25;;;;;;;;;;9990201;28;20050;-78
2024/01/11 22:05:14;;;;;;;11.80;9.18;;;;;;;;;;9989800;28;20140;-75
2024/01/11 22:10:06;;;;;;;12.88;10.23;;;;;;;;;;9968713;28;20151;-76
2024/01/11 22:14:58;;;;;;;10.98;9.70;;;;;;;;;;9969881;28;20426;-77
2024/01/11 22:19:50;;;;;;;15.52;9.85;;;;;;;;;;9964917;28;20545;-76
2024/01/11 22:24:42;;;;;;;9.57;8.05;;;;;;;;;;9983626;28;20042;-77
2024/01/11 22:29:34;;;;;;;12.55;9.32;;;;;;;;;;9989605;28;20081;-77
2024/01/11 22:34:26;;;;;;;11.77;9.80;;;;;;;;;;9987344;28;20065;-77
2024/01/11 22:39:18;;;;;;;13.75;10.48;;;;;;;;;;9975527;28;20053;-76
2024/01/11 22:44:10;;;;;;;12.68;9.35;;;;;;;;;;9981612;28;20169;-76
2024/01/11 22:49:04;;;;;;;11.90;9.98;;;;;;;;;;9980907;28;20120;-76
2024/01/11 22:53:57;;;;;;;10.80;9.70;;;;;;;;;;9988677;28;20077;-76
2024/01/11 22:58:50;;;;;;;13.77;10.40;;;;;;;;;;9970622;28;20046;-76
2024/01/11 23:03:42;;;;;;;12.82;9.80;;;;;;;;;;9988364;28;20073;-76
2024/01/11 23:08:35;;;;;;;12.10;8.80;;;;;;;;;;9988130;28;20342;-75
2024/01/11 23:13:27;;;;;;;12.10;9.65;;;;;;;;;;9987436;28;20126;-76
2024/01/11 23:18:19;;;;;;;10.90;8.95;;;;;;;;;;9987501;28;20532;-77
2024/01/11 23:23:12;;;;;;;10.88;9.45;;;;;;;;;;9987245;28;20046;-76
2024/01/11 23:28:04;;;;;;;9.90;7.88;;;;;;;;;;9987577;28;20046;-75
2024/01/11 23:32:56;;;;;;;10.77;8.82;;;;;;;;;;9969316;28;20058;-76
2024/01/11 23:37:48;;;;;;;10.48;9.23;;;;;;;;;;9987024;28;20097;-76
2024/01/11 23:42:40;;;;;;;11.80;9.80;;;;;;;;;;9969877;28;20034;-76
2024/01/11 23:47:33;;;;;;;12.27;8.25;;;;;;;;;;9987039;28;20038;-76
2024/01/11 23:52:25;;;;;;;9.18;8.15;;;;;;;;;;9987341;28;20508;-77
2024/01/11 23:57:18;;;;;;;9.60;8.45;;;;;;;;;;9986880;28;20046;-77
